• Join FlightAware (Why Join?)
  • Login
  • US Flag 
11:45PM EST


 

Airport Tracker/Info


-or-


 

Live Flight TrackerFlight Track Log ✈ SWA2236 ✈ 07-Jul-2013 ✈ KJAX - KBWI

Flight Track Log - Related Links

Times and Time Zones

All times are in EDT time to prevent confusion due to time zone crossing. See the SWA2236 flight status page for this flight to view local times or setup timezone preferences in your user account.

Time Position Orientation Groundspeed Altitude Reporting Facility
EDT Latitude Longitude Course Direction KTS MPH feet Rate Location/Type
08:07PM 30.5069 -81.6725 35° Northeast 155 178 800  Level Jacksonville Center
08:08PM 30.5547 -81.6333 35° Northeast 258 297 3,000 2,160 Climbing Jacksonville Center
08:09PM 30.6217 -81.6422 353° North 245 282 5,600 2,880 Climbing Jacksonville Center
08:10PM 30.7011 -81.6508 355° North 286 329 8,900 2,580 Climbing Jacksonville Center
08:12PM 30.8264 -81.6636 North 315 362 12,100 2,340 Climbing Jacksonville Center
08:13PM 30.9244 -81.6406 11° North 335 386 14,800 2,700 Climbing Jacksonville Center
08:14PM 31.0264 -81.6028 18° North 360 414 17,600 2,520 Climbing Jacksonville Center
08:15PM 31.1322 -81.5650 17° North 377 434 19,900 2,280 Climbing Jacksonville Center
08:16PM 31.2447 -81.5269 16° North 389 448 22,200 2,100 Climbing Jacksonville Center
08:17PM 31.3569 -81.4839 18° North 409 471 24,200 2,040 Climbing Jacksonville Center
08:18PM 31.4858 -81.4356 18° North 434 499 26,300 1,920 Climbing Jacksonville Center
08:19PM 31.6044 -81.3947 16° North 439 505 28,100 1,740 Climbing Jacksonville Center
08:20PM 31.7147 -81.3564 16° North 444 511 29,800 1,860 Climbing Jacksonville Center
08:21PM 31.8453 -81.2981 21° North 454 522 31,900 1,980 Climbing Jacksonville Center
08:22PM 31.9467 -81.2081 37° Northeast 454 522 33,800 1,740 Climbing Jacksonville Center
08:23PM 32.0456 -81.1231 36° Northeast 440 506 35,400 1,440 Climbing Jacksonville Center
08:24PM 32.1383 -81.0378 38° Northeast 450 518 36,700 1,200 Climbing Jacksonville Center
08:25PM 32.2456 -80.9422 37° Northeast 444 511 37,900 1,080 Climbing Jacksonville Center
08:26PM 32.3422 -80.8542 38° Northeast 438 504 38,900 540 Climbing Jacksonville Center
08:27PM 32.4367 -80.7633 39° Northeast 433 498 39,000  Climbing Jacksonville Center
08:28PM 32.5353 -80.6722 38° Northeast 439 505 39,000  Level Jacksonville Center
08:29PM 32.6319 -80.5836 38° Northeast 434 499 39,000  Level Jacksonville Center
08:30PM 32.7261 -80.4925 39° Northeast 434 499 39,000  Level Jacksonville Center
08:31PM 32.8228 -80.4058 37° Northeast 434 499 39,000  Level Jacksonville Center
08:32PM 32.9169 -80.3167 38° Northeast 434 499 39,000  Level Jacksonville Center
08:33PM 33.0111 -80.2297 38° Northeast 450 518 39,000  Level Jacksonville Center
08:34PM 33.1094 -80.1375 38° Northeast 455 524 39,000  Level Jacksonville Center
08:35PM 33.2075 -80.0450 38° Northeast 455 524 39,000  Level Jacksonville Center
08:36PM 33.3033 -79.9550 38° Northeast 449 517 39,000  Level Jacksonville Center
08:37PM 33.3972 -79.8647 39° Northeast 439 505 39,000  Level Jacksonville Center
08:38PM 33.4953 -79.7694 39° Northeast 439 505 39,000  Level Jacksonville Center
08:39PM 33.5911 -79.6786 38° Northeast 439 505 39,000  Level Jacksonville Center
08:40PM 33.6889 -79.5878 38° Northeast 439 505 39,000  Level Jacksonville Center
08:41PM 33.7844 -79.4942 39° Northeast 439 505 39,000  Level Jacksonville Center
08:42PM 33.8839 -79.3978 39° Northeast 431 496 39,000 -300 Level Jacksonville Center
08:43PM 33.9817 -79.3089 37° Northeast 431 496 38,400 -840 Descending Jacksonville Center
08:44PM 34.0789 -79.2119 40° Northeast 436 502 37,400 -600 Descending Jacksonville Center
08:45PM 34.2192 -79.0778 38° Northeast 427 491 36,900 -600 Descending Washington Center
08:46PM 34.3197 -78.9867 37° Northeast 437 503 35,900 -960 Descending Washington Center
08:47PM 34.4261 -78.9153 29° Northeast 443 510 35,000 -480 Descending Washington Center
08:48PM 34.5553 -78.8475 23° Northeast 443 510 35,000  Level Washington Center
08:49PM 34.6714 -78.7917 22° Northeast 443 510 35,000  Level Washington Center
08:50PM 34.7856 -78.7353 22° Northeast 443 510 35,000  Level Washington Center
08:51PM 34.9019 -78.6767 22° Northeast 443 510 35,000  Level Washington Center
08:52PM 35.0161 -78.6175 23° Northeast 438 504 35,000  Level Washington Center
08:53PM 35.1325 -78.5583 23° Northeast 438 504 35,000  Level Washington Center
08:54PM 35.2486 -78.4992 23° Northeast 438 504 35,000  Level Washington Center
08:55PM 35.3731 -78.4400 21° North 454 522 35,000  Level Washington Center
08:56PM 35.4769 -78.3747 27° Northeast 461 531 35,000  Level Washington Center
08:57PM 35.5992 -78.3203 20° North 466 536 35,000  Level Washington Center
08:58PM 35.7250 -78.2886 12° North 455 524 35,000 -540 Level Washington Center
08:59PM 35.8508 -78.2647 North 448 516 34,000 -1,020 Descending Washington Center
09:00PM 35.9786 -78.2383 North 453 521 33,000 -960 Descending Washington Center
09:01PM 36.1047 -78.2067 11° North 453 521 32,100 -960 Descending Washington Center
09:02PM 36.2250 -78.1358 25° Northeast 466 536 31,100 -1,020 Descending Washington Center
09:03PM 36.3456 -78.0597 27° Northeast 472 543 30,100 -1,020 Descending Washington Center
09:04PM 36.4767 -77.9736 28° Northeast 477 549 29,100 -840 Descending Washington Center
09:05PM 36.5992 -77.8972 27° Northeast 482 555 28,500 -840 Descending Washington Center
09:06PM 36.7239 -77.8178 27° Northeast 488 562 27,500 -1,020 Descending Washington Center
09:07PM 36.8525 -77.7358 27° Northeast 499 574 26,500 -960 Descending Washington Center
09:08PM 36.9792 -77.6561 27° Northeast 499 574 25,600 -1,020 Descending Washington Center
09:09PM 37.1056 -77.5736 27° Northeast 499 574 24,500 -1,080 Descending Washington Center
09:10PM 37.2300 -77.4933 27° Northeast 499 574 23,500 -780 Descending Washington Center
09:11PM 37.3544 -77.4156 26° Northeast 499 574 23,000 -300 Descending Washington Center
09:12PM 37.4764 -77.3400 26° Northeast 492 566 23,000  Level Washington Center
09:13PM 37.6000 -77.3008 14° North 478 550 23,000  Level Washington Center
09:14PM 37.7256 -77.2747 North 459 528 23,000  Level Washington Center
09:15PM 37.8447 -77.2511 North 447 514 23,000 -120 Level Washington Center
09:16PM 37.9681 -77.2247 10° North 442 509 22,800 -1,200 Descending Washington Center
09:17PM 38.0706 -77.2033 North 435 501 20,700 -2,160 Descending Washington Center
09:18PM 38.2044 -77.1744 10° North 435 501 18,500 -2,160 Descending Washington Center
09:19PM 38.3069 -77.1556 North 424 488 16,400 -1,920 Descending Washington Center
09:20PM 38.4139 -77.0967 23° Northeast 418 481 14,800 -2,040 Descending Washington Center
09:21PM 38.4944 -77.0028 42° Northeast 393 452 12,500 -2,040 Descending Washington Center
09:22PM 38.5747 -76.9089 42° Northeast 387 445 10,700 -1,200 Descending Washington Center
09:23PM 38.6422 -76.8250 44° Northeast 353 406 10,100 -900 Descending Washington Center
09:24PM 38.7036 -76.7461 45° Northeast 324 373 9,000 -1,200 Descending Washington Center
09:25PM 38.7461 -76.6536 59° Northeast 308 354 7,800 -1,440 Descending Washington Center
09:26PM 38.7833 -76.5500 65° Northeast 291 335 6,300 -1,320 Descending Potomac TRACON
09:27PM 38.8500 -76.5167 21° North 274 315 5,300 -1,200 Descending Potomac TRACON
09:28PM 38.9333 -76.5000 North 271 312 4,000 -660 Descending Potomac TRACON
09:29PM 39.0000 -76.4833 11° North 238 274 4,000 -420 Level Potomac TRACON
09:30PM 39.0333 -76.5167 322° Northwest 178 205 3,200 -840 Descending Potomac TRACON
09:31PM 39.0667 -76.5667 311° West 174 200 2,300 -780 Descending Potomac TRACON
09:32PM 39.1000 -76.6000 322° Northwest 149 171 1,700 -720 Descending Potomac TRACON
09:33PM 39.1333 -76.6333 322° Northwest 126 145 900 -780 Descending Potomac TRACON
09:35PM 39.1667 -76.6667 339° North  Level FlightAware Approximate
09:42PM 39.1754 -76.6683 339° North  Level Estimated
09:43PM 39.1754 -76.6683 339° North  Level Estimated
09:44PM 39.1754 -76.6683 339° North  Level Estimated
09:45PM 39.1754 -76.6683 339° North  Level Estimated
09:46PM 39.1754 -76.6683 339° North  Level Estimated